Time;durP1;ratioP1;P1;durP2;ratioP2;P2;SDS_P1;SDS_P2;PMS_P1;PMS_P2;Temp;Humidity;BMP_temperature;BMP_pressure;BME280_temperature;BME280_humidity;BME280_pressure;Samples;Min_cycle;Max_cycle;Signal;HPM_P1;HPM_P2
2022/01/22 00:00:18;;;;;;;;;;;;;;;-2.48;100.00;98268.56;1670205;84;22150;-83
2022/01/22 00:02:46;;;;;;;;;;;;;;;-2.49;100.00;98278.39;1671618;85;21368;-82
2022/01/22 00:05:15;;;;;;;;;;;;;;;-2.47;100.00;98274.09;1671216;85;25129;-82
2022/01/22 00:07:41;;;;;;;;;;;;;;;-2.45;100.00;98268.91;1667492;84;20192;-82
2022/01/22 00:10:13;;;;;;;;;;;;;;;-2.41;100.00;98271.84;1670185;85;25114;-82
2022/01/22 00:15:09;;;;;;;;;;;;;;;-2.37;100.00;98269.18;1659077;85;26663;-83
2022/01/22 00:17:37;;;;;;;;;;;;;;;-2.37;100.00;98264.06;1661026;84;25345;-82
2022/01/22 00:20:03;;;;;;;;;;;;;;;-2.35;100.00;98261.04;1668900;85;20331;-82
2022/01/22 00:22:35;;;;;;;;;;;;;;;-2.33;100.00;98261.83;1678470;83;25090;-83
2022/01/22 00:25:02;;;;;;;;;;;;;;;-2.30;100.00;98260.50;1662758;85;21991;-82
2022/01/22 00:27:29;;;;;;;;;;;;;;;-2.29;100.00;98257.50;1663197;84;26037;-83
2022/01/22 00:29:56;;;;;;;;;;;;;;;-2.30;100.00;98256.66;1668848;85;24513;-83
2022/01/22 00:32:23;;;;;;;;;;;;;;;-2.27;100.00;98250.16;1676918;83;20216;-82
2022/01/22 00:34:49;;;;;;;;;;;;;;;-2.28;100.00;98242.06;1661054;84;23913;-82
2022/01/22 00:37:15;;;;;;;;;;;;;;;-2.27;100.00;98235.22;1659980;85;20353;-82
2022/01/22 00:39:41;;;;;;;;;;;;;;;-2.26;100.00;98231.80;1671311;84;25939;-82
2022/01/22 00:42:12;;;;;;;;;;;;;;;-2.25;100.00;98233.48;1674987;83;24309;-82
2022/01/22 00:44:35;;;;;;;;;;;;;;;-2.23;100.00;98238.96;1662614;85;20267;-82
2022/01/22 00:47:07;;;;;;;;;;;;;;;-2.21;100.00;98232.53;1668060;84;25695;-82
2022/01/22 00:49:34;;;;;;;;;;;;;;;-2.19;100.00;98226.94;1668494;85;21714;-81
2022/01/22 00:52:00;;;;;;;;;;;;;;;-2.20;100.00;98231.22;1661925;85;26037;-81
2022/01/22 00:54:26;;;;;;;;;;;;;;;-2.20;100.00;98232.94;1665365;84;24487;-81
2022/01/22 00:56:52;;;;;;;;;;;;;;;-2.18;100.00;98235.86;1675969;83;20529;-82
2022/01/22 00:59:18;;;;;;;;;;;;;;;-2.17;100.00;98240.11;1660618;85;25000;-82
2022/01/22 01:01:44;;;;;;;;;;;;;;;-2.14;100.00;98245.63;1660845;85;21946;-82
2022/01/22 01:04:11;;;;;;;;;;;;;;;-2.11;100.00;98243.83;1665954;85;26122;-82
2022/01/22 01:06:38;;;;;;;;;;;;;;;-2.07;100.00;98240.73;1676644;84;24398;-83
2022/01/22 01:09:06;;;;;;;;;;;;;;;-2.00;100.00;98244.02;1680741;84;20360;-82
2022/01/22 01:11:35;;;;;;;;;;;;;;;-1.96;100.00;98249.03;1660974;85;25001;-82
2022/01/22 01:14:03;;;;;;;;;;;;;;;-1.90;100.00;98245.05;1664385;83;22813;-83
2022/01/22 01:33:14;;;;;;;;;;;;;;;-1.91;100.00;98232.28;1667883;85;24471;-82
2022/01/22 01:35:37;;;;;;;;;;;;;;;-1.93;100.00;98220.77;1665512;85;20248;-82
2022/01/22 01:38:06;;;;;;;;;;;;;;;-2.00;100.00;98224.78;1668563;85;24594;-82
2022/01/22 01:40:35;;;;;;;;;;;;;;;-2.07;100.00;98226.64;1665437;84;22103;-82
2022/01/22 01:45:28;;;;;;;;;;;;;;;-2.09;100.00;98216.87;1667714;84;24410;-82
2022/01/22 01:47:55;;;;;;;;;;;;;;;-2.11;100.00;98227.59;1668441;85;20302;-83
2022/01/22 01:50:21;;;;;;;;;;;;;;;-2.12;100.00;98228.47;1670551;84;25067;-82
2022/01/22 01:53:05;;;;;;;;;;;;;;;-2.11;100.00;98224.59;1653627;85;22695;-82
2022/01/22 01:55:22;;;;;;;;;;;;;;;-2.06;100.00;98220.64;1669170;84;26089;-82
2022/01/22 01:57:46;;;;;;;;;;;;;;;-1.99;100.00;98213.66;1670530;85;24304;-82
2022/01/22 02:00:14;;;;;;;;;;;;;;;-1.99;100.00;98220.91;1666284;84;20224;-82
2022/01/22 02:02:41;;;;;;;;;;;;;;;-2.00;100.00;98212.81;1667315;84;25767;-82
2022/01/22 02:05:09;;;;;;;;;;;;;;;-2.01;100.00;98205.15;1668480;85;21582;-82
2022/01/22 02:07:41;;;;;;;;;;;;;;;-1.99;100.00;98213.66;1672405;84;26077;-82
2022/01/22 02:10:15;;;;;;;;;;;;;;;-1.99;100.00;98208.53;1665583;85;24551;-82
2022/01/22 02:13:36;;;;;;;;;;;;;;;-1.95;100.00;98205.01;1666317;85;20214;-82
2022/01/22 02:23:39;;;;;;;;;;;;;;;-1.84;100.00;98186.36;1660535;86;24614;-83
2022/01/22 02:26:03;;;;;;;;;;;;;;;-1.85;100.00;98193.64;1662988;86;20205;-83
2022/01/22 02:28:29;;;;;;;;;;;;;;;-1.85;100.00;98196.20;1660007;86;25282;-83
2022/01/22 02:31:05;;;;;;;;;;;;;;;-1.85;100.00;98192.36;1649634;86;21950;-83
2022/01/22 02:36:43;;;;;;;;;;;;;;;-1.78;100.00;98188.34;1660627;85;25244;-83
2022/01/22 02:38:32;;;;;;;;;;;;;;;-1.75;100.00;98187.44;1670687;84;20304;-83
2022/01/22 02:40:52;;;;;;;;;;;;;;;-1.74;100.00;98186.09;1677868;85;24487;-83
2022/01/22 02:43:20;;;;;;;;;;;;;;;-1.71;100.00;98187.75;1649473;86;21995;-83
2022/01/22 02:45:47;;;;;;;;;;;;;;;-1.70;100.00;98195.42;1677692;84;26065;-83
2022/01/22 02:48:13;;;;;;;;;;;;;;;-1.67;100.00;98193.64;1649305;85;24625;-82
2022/01/22 02:50:39;;;;;;;;;;;;;;;-1.69;100.00;98197.52;1677786;84;20166;-82
2022/01/22 02:53:07;;;;;;;;;;;;;;;-1.69;100.00;98202.65;1677376;84;24992;-82
2022/01/22 02:55:33;;;;;;;;;;;;;;;-1.70;100.00;98203.55;1661268;86;21959;-82
2022/01/22 02:58:00;;;;;;;;;;;;;;;-1.70;100.00;98197.14;1661122;86;25991;-82
2022/01/22 03:00:26;;;;;;;;;;;;;;;-1.69;100.00;98194.52;1661492;86;24393;-82
2022/01/22 03:02:52;;;;;;;;;;;;;;;-1.68;100.00;98201.77;1661978;86;20256;-82
2022/01/22 03:05:19;;;;;;;;;;;;;;;-1.68;100.00;98200.49;1661508;86;24967;-82
2022/01/22 03:07:50;;;;;;;;;;;;;;;-1.65;100.00;98190.61;1660969;86;22145;-82
2022/01/22 03:10:15;;;;;;;;;;;;;;;-1.60;100.00;98191.33;1658235;86;26113;-83
2022/01/22 03:18:18;;;;;;;;;;;;;;;-1.48;100.00;98189.74;1654129;85;25052;-84
2022/01/22 03:21:03;;;;;;;;;;;;;;;-1.41;100.00;98189.52;1659527;85;22024;-84
2022/01/22 03:29:00;;;;;;;;;;;;;;;-1.23;100.00;98202.77;1675105;84;20685;-83
2022/01/22 03:31:23;;;;;;;;;;;;;;;-1.23;100.00;98210.46;1658324;85;25006;-82
2022/01/22 03:33:52;;;;;;;;;;;;;;;-1.21;100.00;98218.54;1668225;85;23150;-83
2022/01/22 03:36:19;;;;;;;;;;;;;;;-1.17;100.00;98219.29;1677861;85;25995;-82
2022/01/22 03:38:45;;;;;;;;;;;;;;;-1.13;100.00;98219.60;1679017;83;25100;-82
2022/01/22 03:41:11;;;;;;;;;;;;;;;-1.04;100.00;98221.94;1665224;85;20279;-82
2022/01/22 03:43:38;;;;;;;;;;;;;;;-0.98;100.00;98216.61;1664499;85;25828;-82
2022/01/22 03:46:05;;;;;;;;;;;;;;;-0.97;100.00;98215.30;1666682;85;22097;-82
2022/01/22 03:48:31;;;;;;;;;;;;;;;-0.88;100.00;98215.50;1665699;85;25947;-82
2022/01/22 03:50:57;;;;;;;;;;;;;;;-0.86;100.00;98214.56;1653591;85;24586;-82
2022/01/22 03:53:23;;;;;;;;;;;;;;;-0.94;100.00;98213.09;1650639;85;20501;-82
2022/01/22 03:56:02;;;;;;;;;;;;;;;-0.97;100.00;98223.00;1672171;85;25183;-83
2022/01/22 03:58:20;;;;;;;;;;;;;;;-0.92;100.00;98219.02;1662305;85;22041;-82
2022/01/22 04:00:48;;;;;;;;;;;;;;;-0.80;100.00;98225.11;1661172;85;26067;-83
2022/01/22 04:03:36;;;;;;;;;;;;;;;-0.78;100.00;98227.20;1668896;85;25437;-82
2022/01/22 04:08:39;;;;;;;;;;;;;;;-0.77;100.00;98221.19;1636961;84;25207;-83
2022/01/22 04:11:12;;;;;;;;;;;;;;;-0.70;100.00;98229.09;1666007;85;22098;-83
2022/01/22 04:13:36;;;;;;;;;;;;;;;-0.66;100.00;98226.02;1661091;85;26017;-83
2022/01/22 04:16:02;;;;;;;;;;;;;;;-0.67;100.00;98234.17;1655878;85;24488;-83
2022/01/22 04:26:54;;;;;;;;;;;;;;;-0.87;100.00;98249.27;1671721;84;28356;-83
2022/01/22 04:29:10;;;;;;;;;;;;;;;-0.95;100.00;98249.94;1665835;85;24532;-83
2022/01/22 04:31:39;;;;;;;;;;;;;;;-1.03;100.00;98245.42;1666325;85;20279;-82
2022/01/22 04:34:05;;;;;;;;;;;;;;;-1.00;100.00;98253.91;1669283;84;25110;-82
2022/01/22 04:36:31;;;;;;;;;;;;;;;-0.99;100.00;98249.19;1670022;85;20382;-83
2022/01/22 04:38:57;;;;;;;;;;;;;;;-0.98;100.00;98248.71;1669750;84;26053;-83
2022/01/22 04:41:23;;;;;;;;;;;;;;;-0.91;100.00;98255.37;1668587;84;20821;-83
2022/01/22 04:43:56;;;;;;;;;;;;;;;-0.70;100.00;98253.50;1668417;84;20455;-83
2022/01/22 04:49:09;;;;;;;;;;;;;;;-0.53;100.00;98244.03;1667833;85;22838;-83
2022/01/22 04:56:53;;;;;;;;;;;;;;;-0.52;100.00;98255.56;1605658;88;20263;-83
2022/01/22 04:59:19;;;;;;;;;;;;;;;-0.62;100.00;98262.30;1634797;85;24872;-83
2022/01/22 05:01:45;;;;;;;;;;;;;;;-0.72;100.00;98270.71;1668583;85;22033;-83
2022/01/22 05:04:11;;;;;;;;;;;;;;;-0.78;100.00;98277.30;1671052;85;25971;-83
2022/01/22 05:06:37;;;;;;;;;;;;;;;-0.74;100.00;98285.31;1667048;84;24535;-83
2022/01/22 05:09:03;;;;;;;;;;;;;;;-0.69;100.00;98278.31;1664305;84;20344;-83
2022/01/22 05:11:29;;;;;;;;;;;;;;;-0.68;100.00;98286.44;1666148;84;24977;-83
2022/01/22 05:13:55;;;;;;;;;;;;;;;-0.77;100.00;98281.99;1666904;84;21931;-82
2022/01/22 05:16:21;;;;;;;;;;;;;;;-0.79;100.00;98283.31;1671079;85;21074;-83
2022/01/22 05:19:44;;;;;;;;;;;;;;;;;;;;;
2022/01/22 05:21:26;;;;;;;;;;;;;;;-0.94;100.00;98290.15;1655014;85;20282;-83
2022/01/22 05:24:08;;;;;;;;;;;;;;;-1.05;100.00;98295.56;1671076;85;25818;-83
2022/01/22 05:37:06;;;;;;;;;;;;;;;-0.82;100.00;98310.82;1652938;85;25100;-83
2022/01/22 05:39:37;;;;;;;;;;;;;;;-0.92;100.00;98312.77;1664179;85;22192;-83
2022/01/22 05:42:05;;;;;;;;;;;;;;;-0.90;100.00;98316.14;1668100;85;25964;-83
2022/01/22 05:44:36;;;;;;;;;;;;;;;-0.87;100.00;98325.89;1663431;85;25087;-83
2022/01/22 05:47:05;;;;;;;;;;;;;;;-0.84;100.00;98336.54;1660375;84;20243;-82
2022/01/22 05:49:36;;;;;;;;;;;;;;;-0.82;100.00;98343.78;1679448;84;25610;-82
2022/01/22 05:52:04;;;;;;;;;;;;;;;-0.79;100.00;98342.84;1679807;84;22056;-83
2022/01/22 05:59:44;;;;;;;;;;;;;;;-0.71;100.00;98353.30;1677740;84;20324;-83
2022/01/22 06:02:13;;;;;;;;;;;;;;;-0.76;100.00;98355.15;1666844;85;25194;-83
2022/01/22 06:04:41;;;;;;;;;;;;;;;-0.91;100.00;98356.83;1649753;85;21998;-83
2022/01/22 06:07:16;;;;;;;;;;;;;;;-0.87;100.00;98366.14;1661457;85;26074;-83
2022/01/22 06:10:06;;;;;;;;;;;;;;;-0.79;100.00;98384.79;1653041;85;24467;-83
2022/01/22 06:12:46;;;;;;;;;;;;;;;-0.74;100.00;98393.66;1677534;85;20210;-83
2022/01/22 06:14:48;;;;;;;;;;;;;;;-0.71;100.00;98393.59;1665525;85;24996;-84
2022/01/22 06:17:14;;;;;;;;;;;;;;;-0.66;100.00;98396.89;1668305;84;22591;-82
2022/01/22 06:19:41;;;;;;;;;;;;;;;-0.72;100.00;98404.75;1667719;85;26209;-83
2022/01/22 06:22:07;;;;;;;;;;;;;;;-0.74;100.00;98407.79;1669322;84;24256;-82
2022/01/22 06:24:33;;;;;;;;;;;;;;;-0.57;100.00;98412.06;1672133;85;20231;-83
2022/01/22 06:27:03;;;;;;;;;;;;;;;-0.50;100.00;98413.59;1666714;85;20262;-82
2022/01/22 06:29:27;;;;;;;;;;;;;;;-0.49;100.00;98417.83;1669562;84;22627;-82
2022/01/22 06:31:53;;;;;;;;;;;;;;;-0.37;100.00;98421.38;1670023;85;21067;-82
2022/01/22 06:34:26;;;;;;;;;;;;;;;-0.23;100.00;98423.59;1668550;84;20296;-82
2022/01/22 06:36:52;;;;;;;;;;;;;;;-0.16;100.00;98431.52;1663936;84;20573;-82
2022/01/22 06:39:20;;;;;;;;;;;;;;;-0.29;100.00;98434.04;1668731;85;25050;-83
2022/01/22 06:41:47;;;;;;;;;;;;;;;-0.45;100.00;98439.59;1667871;84;22630;-82
2022/01/22 06:44:17;;;;;;;;;;;;;;;-0.45;100.00;98444.73;1668769;84;26051;-82
2022/01/22 06:46:44;;;;;;;;;;;;;;;-0.40;100.00;98448.45;1653870;85;24612;-83
2022/01/22 06:49:10;;;;;;;;;;;;;;;-0.36;100.00;98454.35;1666965;85;20258;-83
2022/01/22 06:51:36;;;;;;;;;;;;;;;-0.42;100.00;98458.77;1668634;85;25024;-83
2022/01/22 06:54:03;;;;;;;;;;;;;;;-0.50;100.00;98463.28;1665668;85;20851;-83
2022/01/22 06:56:31;;;;;;;;;;;;;;;-0.46;100.00;98462.75;1665939;85;26791;-83
2022/01/22 06:58:58;;;;;;;;;;;;;;;-0.36;100.00;98469.34;1667610;85;24393;-83
2022/01/22 07:01:25;;;;;;;;;;;;;;;-0.38;100.00;98469.00;1668707;85;20492;-83
2022/01/22 07:03:51;;;;;;;;;;;;;;;-0.48;100.00;98472.21;1663704;84;25026;-83
2022/01/22 07:06:17;;;;;;;;;;;;;;;-0.50;100.00;98469.70;1667500;85;21937;-83
2022/01/22 07:08:44;;;;;;;;;;;;;;;-0.53;100.00;98478.77;1667665;85;26032;-83
2022/01/22 07:11:10;;;;;;;;;;;;;;;-0.54;100.00;98479.64;1673238;85;24614;-83
2022/01/22 07:13:37;;;;;;;;;;;;;;;-0.60;100.00;98484.11;1668510;84;20257;-83
2022/01/22 07:16:04;;;;;;;;;;;;;;;-0.68;100.00;98481.72;1657355;85;24993;-83
2022/01/22 07:18:30;;;;;;;;;;;;;;;-0.74;100.00;98488.72;1650077;86;22126;-83
2022/01/22 07:20:57;;;;;;;;;;;;;;;-0.77;100.00;98491.37;1650125;86;26941;-83
2022/01/22 07:24:05;;;;;;;;;;;;;;;-0.80;100.00;98498.70;1649934;86;24564;-83
2022/01/22 07:26:03;;;;;;;;;;;;;;;-0.87;100.00;98501.00;1647217;85;20234;-83
2022/01/22 07:28:29;;;;;;;;;;;;;;;-0.86;100.00;98512.97;1651254;86;25029;-83
2022/01/22 07:30:55;;;;;;;;;;;;;;;-0.95;100.00;98511.91;1650236;86;21946;-83
2022/01/22 07:33:21;;;;;;;;;;;;;;;-1.00;100.00;98522.28;1650456;86;26030;-83
2022/01/22 07:35:47;;;;;;;;;;;;;;;-1.08;100.00;98524.16;1650179;86;24519;-83
2022/01/22 07:38:14;;;;;;;;;;;;;;;-1.20;100.00;98528.73;1648660;85;20166;-83
2022/01/22 07:40:40;;;;;;;;;;;;;;;-1.20;100.00;98533.41;1650689;86;25126;-83
2022/01/22 07:43:07;;;;;;;;;;;;;;;-1.18;100.00;98541.09;1650753;86;20278;-83
2022/01/22 07:45:34;;;;;;;;;;;;;;;-1.18;100.00;98535.95;1651390;86;26920;-83
2022/01/22 07:48:00;;;;;;;;;;;;;;;-1.19;100.00;98528.69;1633571;86;24878;-83
2022/01/22 07:50:30;;;;;;;;;;;;;;;-1.21;100.00;98530.46;1648089;86;20474;-83
2022/01/22 07:52:57;;;;;;;;;;;;;;;-1.14;100.00;98535.00;1649434;86;24935;-83
2022/01/22 07:55:23;;;;;;;;;;;;;;;-1.19;100.00;98539.39;1650875;85;22232;-82
2022/01/22 07:57:49;;;;;;;;;;;;;;;-1.22;100.00;98544.61;1649085;86;26136;-83
2022/01/22 08:00:16;;;;;;;;;;;;;;;-1.31;100.00;98551.60;1631788;86;24173;-82
2022/01/22 08:02:43;;;;;;;;;;;;;;;-1.38;100.00;98560.33;1634436;86;20544;-82
2022/01/22 08:05:09;;;;;;;;;;;;;;;-1.42;100.00;98558.67;1651336;86;25029;-82
2022/01/22 08:07:36;;;;;;;;;;;;;;;-1.44;100.00;98559.17;1651163;86;21930;-82
2022/01/22 08:10:03;;;;;;;;;;;;;;;-1.46;100.00;98562.19;1651394;86;26220;-82
2022/01/22 08:12:29;;;;;;;;;;;;;;;-1.46;100.00;98567.75;1650341;86;24527;-82
2022/01/22 08:14:55;;;;;;;;;;;;;;;-1.40;100.00;98569.77;1647676;86;20226;-83
2022/01/22 08:17:21;;;;;;;;;;;;;;;-1.43;100.00;98569.84;1634988;87;25064;-82
2022/01/22 08:19:48;;;;;;;;;;;;;;;-1.38;100.00;98581.30;1633205;87;22650;-82
2022/01/22 08:22:14;;;;;;;;;;;;;;;-1.37;100.00;98582.56;1632602;87;26195;-83
2022/01/22 08:24:41;;;;;;;;;;;;;;;-1.32;100.00;98582.03;1635617;87;24554;-84
2022/01/22 08:29:35;;;;;;;;;;;;;;;-1.15;100.00;98592.39;1633591;86;25726;-84
2022/01/22 08:37:33;;;;;;;;;;;;;;;-0.95;100.00;98603.08;1621116;87;25117;-85
2022/01/22 08:40:00;;;;;;;;;;;;;;;-0.99;100.00;98611.30;1637211;87;20244;-84
2022/01/22 08:42:27;;;;;;;;;;;;;;;-1.04;100.00;98609.70;1634742;87;24448;-83
2022/01/22 08:44:53;;;;;;;;;;;;;;;-1.10;100.00;98613.25;1635432;87;21959;-84
2022/01/22 08:47:21;;;;;;;;;;;;;;;-1.08;100.00;98612.75;1632591;86;26140;-84
2022/01/22 08:49:47;;;;;;;;;;;;;;;-1.05;100.00;98615.28;1632073;87;24600;-83
2022/01/22 08:52:15;;;;;;;;;;;;;;;-0.99;100.00;98625.43;1629490;87;20288;-86
2022/01/22 08:54:42;;;;;;;;;;;;;;;-0.95;100.00;98629.61;1631235;87;25018;-83
2022/01/22 08:57:09;;;;;;;;;;;;;;;-0.97;100.00;98634.36;1633664;87;21989;-84
2022/01/22 08:59:35;;;;;;;;;;;;;;;-1.01;100.00;98636.16;1633159;86;26056;-83
2022/01/22 09:02:01;;;;;;;;;;;;;;;-1.03;100.00;98637.91;1623741;87;20384;-83
2022/01/22 09:04:27;;;;;;;;;;;;;;;-1.06;100.00;98649.97;1632946;87;20219;-83
2022/01/22 09:06:59;;;;;;;;;;;;;;;-1.09;100.00;98648.77;1633562;87;24935;-83
2022/01/22 09:09:26;;;;;;;;;;;;;;;-1.01;100.00;98649.44;1632846;87;22129;-84
2022/01/22 09:11:52;;;;;;;;;;;;;;;-0.91;100.00;98654.79;1632767;87;26047;-83
2022/01/22 09:14:22;;;;;;;;;;;;;;;-0.90;100.00;98660.34;1632606;87;25371;-83
2022/01/22 09:16:51;;;;;;;;;;;;;;;-0.86;100.00;98661.96;1633284;85;20234;-84
2022/01/22 09:19:18;;;;;;;;;;;;;;;-0.83;100.00;98655.49;1632621;87;25180;-83
2022/01/22 09:21:45;;;;;;;;;;;;;;;-0.84;100.00;98661.50;1635489;87;21984;-84
2022/01/22 09:24:12;;;;;;;;;;;;;;;-0.86;100.00;98661.52;1636998;86;25959;-83
2022/01/22 09:26:38;;;;;;;;;;;;;;;-0.79;100.00;98666.11;1634199;86;24501;-84
2022/01/22 09:29:05;;;;;;;;;;;;;;;-0.66;100.00;98667.55;1637343;87;20311;-84
2022/01/22 09:31:32;;;;;;;;;;;;;;;-0.60;100.00;98675.57;1632861;87;24895;-84
2022/01/22 09:33:59;;;;;;;;;;;;;;;-0.61;100.00;98677.73;1635027;87;21984;-84
2022/01/22 09:36:27;;;;;;;;;;;;;;;-0.64;100.00;98686.33;1635042;87;26101;-84
2022/01/22 09:38:55;;;;;;;;;;;;;;;-0.63;100.00;98699.59;1634352;87;24389;-83
2022/01/22 09:41:22;;;;;;;;;;;;;;;-0.64;100.00;98699.61;1633118;87;20215;-84
2022/01/22 09:43:54;;;;;;;;;;;;;;;-0.60;100.00;98709.80;1634515;86;25612;-84
2022/01/22 09:46:27;;;;;;;;;;;;;;;-0.53;100.00;98711.80;1630797;87;22152;-84
2022/01/22 09:48:55;;;;;;;;;;;;;;;-0.44;100.00;98703.92;1633806;87;25683;-84
2022/01/22 09:51:21;;;;;;;;;;;;;;;-0.44;100.00;98697.02;1634932;87;24623;-84
2022/01/22 09:53:48;;;;;;;;;;;;;;;-0.44;100.00;98690.59;1632869;87;20533;-84
2022/01/22 09:56:16;;;;;;;;;;;;;;;-0.45;100.00;98692.78;1633516;87;25112;-84
2022/01/22 09:58:45;;;;;;;;;;;;;;;-0.50;100.00;98698.91;1633905;87;21991;-84
2022/01/22 10:01:27;;;;;;;;;;;;;;;-0.52;100.00;98700.66;1635488;86;26049;-84
2022/01/22 10:03:55;;;;;;;;;;;;;;;-0.50;100.00;98700.19;1631247;87;24500;-84
2022/01/22 10:06:23;;;;;;;;;;;;;;;-0.44;100.00;98704.73;1633976;87;20509;-84
2022/01/22 10:08:55;;;;;;;;;;;;;;;-0.44;100.00;98705.20;1633592;87;25030;-84
2022/01/22 10:11:21;;;;;;;;;;;;;;;-0.40;100.00;98708.55;1634222;87;21886;-84
2022/01/22 10:13:52;;;;;;;;;;;;;;;-0.37;100.00;98707.17;1635266;87;26694;-84
2022/01/22 10:16:26;;;;;;;;;;;;;;;-0.47;100.00;98717.67;1649363;85;24326;-84
2022/01/22 10:19:10;;;;;;;;;;;;;;;-0.52;100.00;98716.92;1671044;85;20318;-83
2022/01/22 10:21:40;;;;;;;;;;;;;;;-0.57;100.00;98712.75;1666701;85;25042;-83
2022/01/22 10:27:22;;;;;;;;;;;;;;;-0.58;100.00;98711.91;1668343;85;26201;-84
2022/01/22 10:29:52;;;;;;;;;;;;;;;-0.58;100.00;98713.63;1667246;85;25199;-84
2022/01/22 10:32:19;;;;;;;;;;;;;;;-0.56;100.00;98714.45;1667721;85;20156;-84
2022/01/22 10:34:47;;;;;;;;;;;;;;;-0.61;100.00;98716.27;1671261;85;25036;-83
2022/01/22 10:37:13;;;;;;;;;;;;;;;-0.68;100.00;98720.69;1665500;85;21967;-84
2022/01/22 10:39:40;;;;;;;;;;;;;;;-0.71;100.00;98725.05;1670050;85;26047;-83
2022/01/22 10:42:08;;;;;;;;;;;;;;;-0.76;100.00;98725.12;1667917;85;23915;-84
2022/01/22 10:44:41;;;;;;;;;;;;;;;-0.84;100.00;98732.15;1663808;85;20443;-83
2022/01/22 10:47:07;;;;;;;;;;;;;;;-0.89;100.00;98737.81;1667200;85;25139;-84
2022/01/22 10:49:33;;;;;;;;;;;;;;;-0.89;100.00;98746.81;1669845;85;22701;-83
2022/01/22 10:52:02;;;;;;;;;;;;;;;-0.85;100.00;98745.43;1668248;85;20905;-84
2022/01/22 10:54:30;;;;;;;;;;;;;;;-0.84;100.00;98752.70;1670258;85;25348;-83
2022/01/22 10:56:58;;;;;;;;;;;;;;;-0.87;100.00;98751.45;1663396;85;20217;-83
2022/01/22 10:59:27;;;;;;;;;;;;;;;-0.94;100.00;98752.47;1636454;86;25810;-84
2022/01/22 11:02:00;;;;;;;;;;;;;;;-0.93;100.00;98756.27;1631176;85;22182;-84
2022/01/22 11:04:37;;;;;;;;;;;;;;;-0.89;100.00;98758.37;1617064;87;26084;-84
2022/01/22 11:07:05;;;;;;;;;;;;;;;-0.81;100.00;98762.05;1627926;86;24511;-84
2022/01/22 11:09:32;;;;;;;;;;;;;;;-0.80;100.00;98768.45;1631611;86;20297;-83
2022/01/22 11:12:00;;;;;;;;;;;;;;;-0.79;100.00;98767.59;1638203;87;24540;-83
2022/01/22 11:14:30;;;;;;;;;;;;;;;-0.69;100.00;98768.25;1626253;86;22043;-83
2022/01/22 11:16:57;;;;;;;;;;;;;;;-0.67;100.00;98767.80;1660108;83;26071;-83
2022/01/22 11:19:30;;;;;;;;;;;;;;;-0.66;100.00;98763.06;1652511;85;24632;-83
2022/01/22 11:21:53;;;;;;;;;;;;;;;-0.65;100.00;98751.88;1665158;84;20276;-84
2022/01/22 11:24:21;;;;;;;;;;;;;;;-0.67;100.00;98752.38;1663706;84;24931;-83
2022/01/22 11:26:52;;;;;;;;;;;;;;;-0.65;100.00;98757.02;1662165;84;22050;-83
2022/01/22 11:29:19;;;;;;;;;;;;;;;-0.68;100.00;98757.95;1665669;85;26081;-83
2022/01/22 11:31:47;;;;;;;;;;;;;;;-0.68;100.00;98755.81;1664884;85;24262;-83
2022/01/22 11:34:17;;;;;;;;;;;;;;;-0.70;100.00;98761.41;1680135;84;20663;-83
2022/01/22 11:36:48;;;;;;;;;;;;;;;-0.68;100.00;98766.94;1660634;85;24494;-83
2022/01/22 11:39:15;;;;;;;;;;;;;;;-0.71;100.00;98766.98;1666670;85;22801;-83
2022/01/22 11:41:57;;;;;;;;;;;;;;;-0.70;100.00;98765.27;1660491;85;26072;-83
2022/01/22 11:44:35;;;;;;;;;;;;;;;-0.71;100.00;98772.13;1660963;85;24521;-83
2022/01/22 11:47:12;;;;;;;;;;;;;;;-0.71;100.00;98772.13;1662493;85;20189;-83
2022/01/22 11:49:38;;;;;;;;;;;;;;;-0.73;100.00;98782.89;1663095;85;24743;-83
2022/01/22 11:52:09;;;;;;;;;;;;;;;-0.70;100.00;98785.39;1663367;84;22051;-82
2022/01/22 11:54:51;;;;;;;;;;;;;;;-0.70;100.00;98782.81;1658057;85;25969;-83
2022/01/22 11:57:18;;;;;;;;;;;;;;;-0.73;100.00;98784.17;1664518;84;24389;-82
2022/01/22 11:59:46;;;;;;;;;;;;;;;-0.80;100.00;98803.14;1664895;85;20224;-82
2022/01/22 12:02:15;;;;;;;;;;;;;;;-0.86;100.00;98807.11;1658278;84;25313;-82
2022/01/22 12:04:44;;;;;;;;;;;;;;;-0.88;100.00;98811.01;1667053;85;22734;-83
2022/01/22 12:07:11;;;;;;;;;;;;;;;-0.97;100.00;98811.16;1662796;85;26050;-83
2022/01/22 12:10:05;;;;;;;;;;;;;;;-1.00;100.00;98818.92;1659228;85;24316;-83
2022/01/22 12:15:11;;;;;;;;;;;;;;;-0.95;100.00;98826.11;1666503;84;25068;-82
2022/01/22 12:18:04;;;;;;;;;;;;;;;-0.94;100.00;98834.67;1668496;84;22746;-83
2022/01/22 12:23:06;;;;;;;;;;;;;;;-0.95;100.00;98841.95;1662717;84;24433;-83
2022/01/22 12:25:37;;;;;;;;;;;;;;;-0.97;100.00;98846.27;1667188;84;20363;-83
2022/01/22 12:28:04;;;;;;;;;;;;;;;-1.11;100.00;98836.67;1666405;84;25582;-83
2022/01/22 12:30:45;;;;;;;;;;;;;;;-1.03;100.00;98854.92;1662733;85;21991;-83
2022/01/22 12:33:30;;;;;;;;;;;;;;;-1.06;100.00;98852.42;1661927;85;26782;-82
2022/01/22 12:35:58;;;;;;;;;;;;;;;-1.05;100.00;98851.55;1666233;85;24428;-82
2022/01/22 12:44:07;;;;;;;;;;;;;;;-1.08;100.00;98863.57;1683154;85;21989;-83
2022/01/22 12:46:34;;;;;;;;;;;;;;;-1.07;100.00;98869.98;1670010;84;26220;-83
2022/01/22 12:49:01;;;;;;;;;;;;;;;-1.10;100.00;98873.05;1665550;85;24539;-84
2022/01/22 12:51:27;;;;;;;;;;;;;;;-1.12;100.00;98876.06;1674801;84;20370;-83
2022/01/22 12:53:53;;;;;;;;;;;;;;;-1.13;100.00;98879.06;1676583;85;25014;-83
2022/01/22 12:59:02;;;;;;;;;;;;;;;-1.18;100.00;98883.86;1676729;84;25500;-83
2022/01/22 13:01:30;;;;;;;;;;;;;;;-1.19;100.00;98882.16;1648874;85;24411;-83
2022/01/22 13:03:57;;;;;;;;;;;;;;;-1.18;100.00;98887.70;1632554;87;20279;-82
2022/01/22 13:06:25;;;;;;;;;;;;;;;-1.17;100.00;98884.27;1660256;85;25048;-82
2022/01/22 13:08:55;;;;;;;;;;;;;;;-1.12;100.00;98895.31;1660737;85;21924;-82
2022/01/22 13:11:23;;;;;;;;;;;;;;;-1.12;100.00;98897.45;1680422;83;26077;-83
2022/01/22 13:13:50;;;;;;;;;;;;;;;-1.14;100.00;98899.62;1679095;83;24728;-82
2022/01/22 13:16:17;;;;;;;;;;;;;;;-1.18;100.00;98903.97;1678077;83;20294;-82
2022/01/22 13:18:58;;;;;;;;;;;;;;;-1.19;100.00;98905.27;1663731;85;24988;-84
2022/01/22 13:21:31;;;;;;;;;;;;;;;-1.22;100.00;98906.61;1666540;85;22030;-83
2022/01/22 13:23:59;;;;;;;;;;;;;;;-1.27;100.00;98916.52;1672739;84;26170;-83
2022/01/22 13:26:40;;;;;;;;;;;;;;;-1.31;100.00;98912.28;1644411;85;24577;-83
2022/01/22 13:29:15;;;;;;;;;;;;;;;-1.32;100.00;98911.04;1618038;85;20370;-84
2022/01/22 13:31:43;;;;;;;;;;;;;;;-1.33;100.00;98910.19;1667205;85;25190;-84
2022/01/22 13:34:25;;;;;;;;;;;;;;;-1.33;100.00;98920.45;1677898;83;22797;-84
2022/01/22 13:36:54;;;;;;;;;;;;;;;-1.32;100.00;98916.17;1676808;84;26690;-83
2022/01/22 13:49:52;;;;;;;;;;;;;;;-1.38;100.00;98935.08;1662920;85;26060;-82
2022/01/22 13:52:20;;;;;;;;;;;;;;;-1.36;100.00;98949.16;1657382;85;24396;-83
2022/01/22 13:54:48;;;;;;;;;;;;;;;-1.40;100.00;98949.64;1657588;85;20189;-83
2022/01/22 13:57:16;;;;;;;;;;;;;;;-1.41;100.00;98960.77;1660043;84;25034;-83
2022/01/22 13:59:43;;;;;;;;;;;;;;;-1.40;100.00;98963.77;1666532;85;21455;-83
2022/01/22 14:04:52;;;;;;;;;;;;;;;-1.39;100.00;98965.46;1661135;84;24450;-83
2022/01/22 14:07:31;;;;;;;;;;;;;;;-1.38;100.00;98965.03;1662352;85;20180;-83
2022/01/22 14:10:11;;;;;;;;;;;;;;;-1.43;100.00;98969.38;1664682;84;24466;-83
2022/01/22 14:12:46;;;;;;;;;;;;;;;-1.45;100.00;98979.66;1664211;85;22108;-84
2022/01/22 14:15:16;;;;;;;;;;;;;;;-1.47;100.00;98985.23;1661774;85;26979;-84
2022/01/22 14:17:50;;;;;;;;;;;;;;;-1.48;100.00;98987.84;1668006;84;26914;-84
2022/01/22 14:20:16;;;;;;;;;;;;;;;-1.48;100.00;98991.70;1657512;85;20343;-84
2022/01/22 14:22:52;;;;;;;;;;;;;;;-1.47;100.00;98993.36;1673061;84;25036;-83
2022/01/22 14:25:18;;;;;;;;;;;;;;;-1.49;100.00;98997.26;1663694;84;21924;-84
2022/01/22 14:27:55;;;;;;;;;;;;;;;-1.50;100.00;98998.12;1676546;83;21265;-83
2022/01/22 14:30:41;;;;;;;;;;;;;;;-1.52;100.00;98998.99;1657283;84;24496;-83
2022/01/22 14:33:08;;;;;;;;;;;;;;;-1.51;100.00;98997.70;1674472;85;20263;-83
2022/01/22 14:35:35;;;;;;;;;;;;;;;-1.48;100.00;98991.27;1674036;85;25205;-83
2022/01/22 14:38:15;;;;;;;;;;;;;;;-1.45;100.00;98992.49;1670303;84;22796;-83
2022/01/22 14:46:11;;;;;;;;;;;;;;;-1.49;100.00;98993.41;1672242;84;20593;-84